Time;durP1;ratioP1;P1;durP2;ratioP2;P2;SDS_P1;SDS_P2;PMS_P1;PMS_P2;Temp;Humidity;BMP_temperature;BMP_pressure;BME280_temperature;BME280_humidity;BME280_pressure;Samples;Min_cycle;Max_cycle;Signal;HPM_P1;HPM_P2
2023/05/09 00:01:57;;;;;;;51.67;31.42;;;14.70;99.90;;;;;;5046427;28;20049;-76
2023/05/09 00:04:23;;;;;;;53.25;32.47;;;14.60;99.90;;;;;;5066977;28;20699;-75
2023/05/09 00:06:50;;;;;;;58.80;32.70;;;14.60;99.90;;;;;;5055372;28;20041;-76
2023/05/09 00:09:16;;;;;;;58.05;32.08;;;14.70;99.90;;;;;;5052454;28;20032;-75
2023/05/09 00:11:42;;;;;;;53.50;30.98;;;14.70;99.90;;;;;;5051063;28;20070;-75
2023/05/09 00:14:08;;;;;;;58.35;32.55;;;14.70;99.90;;;;;;5054999;28;20048;-75
2023/05/09 00:16:35;;;;;;;53.08;29.98;;;14.70;99.90;;;;;;5050716;28;20510;-75
2023/05/09 00:19:03;;;;;;;54.03;29.30;;;14.70;99.90;;;;;;5052025;28;20073;-75
2023/05/09 00:21:29;;;;;;;53.90;30.27;;;14.60;99.90;;;;;;5049955;28;20044;-75
2023/05/09 00:23:56;;;;;;;50.35;29.48;;;14.60;99.90;;;;;;5050808;28;20044;-76
2023/05/09 00:26:22;;;;;;;52.72;29.27;;;14.60;99.90;;;;;;5050463;28;20119;-75
2023/05/09 00:28:48;;;;;;;52.38;28.65;;;14.60;99.90;;;;;;5051741;28;20087;-75
2023/05/09 00:31:13;;;;;;;49.67;29.30;;;14.70;99.90;;;;;;5052572;28;20044;-75
2023/05/09 00:33:39;;;;;;;47.80;28.45;;;14.60;99.90;;;;;;5052329;28;20040;-75
2023/05/09 00:36:05;;;;;;;55.30;31.02;;;14.60;99.90;;;;;;5028617;28;20040;-75
2023/05/09 00:38:31;;;;;;;52.25;30.33;;;14.60;99.90;;;;;;5053333;28;20040;-76
2023/05/09 00:40:57;;;;;;;52.97;30.77;;;14.60;99.90;;;;;;5051628;28;20090;-75
2023/05/09 00:43:22;;;;;;;59.35;32.88;;;14.60;99.90;;;;;;5052592;28;20068;-75
2023/05/09 00:45:49;;;;;;;55.17;31.08;;;14.60;99.90;;;;;;5048111;28;20059;-75
2023/05/09 00:48:15;;;;;;;50.70;29.48;;;14.60;99.90;;;;;;5037544;28;20047;-76
2023/05/09 00:50:41;;;;;;;50.67;29.83;;;14.60;99.90;;;;;;5053055;28;20036;-75
2023/05/09 00:53:08;;;;;;;58.08;30.50;;;14.60;99.90;;;;;;5047484;28;20036;-75
2023/05/09 00:55:34;;;;;;;55.33;31.17;;;14.70;99.90;;;;;;5053094;28;20043;-76
2023/05/09 00:58:01;;;;;;;57.58;32.05;;;14.60;99.90;;;;;;5044081;28;20402;-75
2023/05/09 01:00:27;;;;;;;56.40;30.42;;;14.60;99.90;;;;;;5016004;28;20135;-75
2023/05/09 01:02:55;;;;;;;57.58;31.73;;;14.60;99.90;;;;;;5051332;28;20120;-75
2023/05/09 01:05:24;;;;;;;53.42;29.67;;;14.50;99.90;;;;;;5045478;28;20032;-75
2023/05/09 01:08:12;;;;;;;56.67;32.20;;;14.50;99.90;;;;;;5059459;28;20049;-75
2023/05/09 01:10:56;;;;;;;60.58;31.17;;;14.50;99.90;;;;;;5050662;28;20576;-75
2023/05/09 01:13:21;;;;;;;50.20;28.88;;;14.40;99.90;;;;;;5044917;28;20043;-75
2023/05/09 01:15:58;;;;;;;51.53;29.20;;;14.40;99.90;;;;;;5049019;28;20145;-75
2023/05/09 01:18:27;;;;;;;51.70;27.65;;;14.40;99.90;;;;;;5053936;28;20040;-75
2023/05/09 01:21:00;;;;;;;48.78;28.40;;;14.50;99.90;;;;;;5051992;28;20684;-75
2023/05/09 01:23:51;;;;;;;52.30;28.95;;;14.50;99.90;;;;;;5049914;28;20800;-75
2023/05/09 01:26:43;;;;;;;55.45;28.70;;;14.50;99.90;;;;;;5050258;28;20045;-75
2023/05/09 01:29:34;;;;;;;53.85;28.88;;;14.40;99.90;;;;;;5047016;28;20096;-75
2023/05/09 01:32:08;;;;;;;51.70;28.38;;;14.40;99.90;;;;;;5049029;28;20127;-75
2023/05/09 01:34:37;;;;;;;49.95;28.33;;;14.40;99.90;;;;;;5060419;28;20097;-75
2023/05/09 01:37:04;;;;;;;53.28;28.98;;;14.30;99.90;;;;;;5048549;28;20135;-75
2023/05/09 01:39:32;;;;;;;51.25;30.20;;;14.40;99.90;;;;;;5050700;28;20111;-75
2023/05/09 01:42:02;;;;;;;52.63;30.02;;;14.40;99.90;;;;;;5051918;28;20055;-75
2023/05/09 01:44:34;;;;;;;51.42;29.02;;;14.40;99.90;;;;;;5035723;28;20375;-75
2023/05/09 01:47:00;;;;;;;51.83;29.85;;;14.40;99.90;;;;;;5051056;28;20070;-75
2023/05/09 01:49:29;;;;;;;53.03;29.05;;;14.40;99.90;;;;;;5037872;28;20064;-75
2023/05/09 01:51:57;;;;;;;47.50;27.48;;;14.40;99.90;;;;;;5051776;28;20117;-75
2023/05/09 01:54:25;;;;;;;54.65;29.95;;;14.40;99.90;;;;;;5038008;28;21030;-75
2023/05/09 01:56:52;;;;;;;54.45;29.50;;;14.40;99.90;;;;;;5053641;28;20062;-75
2023/05/09 01:59:18;;;;;;;51.28;29.20;;;14.50;99.90;;;;;;5048682;28;20036;-75
2023/05/09 02:01:46;;;;;;;56.05;31.05;;;14.50;99.90;;;;;;5050786;28;20123;-75
2023/05/09 02:07:58;;;;;;;50.53;29.30;;;14.50;99.90;;;;;;5071104;28;20055;-75
2023/05/09 02:10:26;;;;;;;50.45;28.08;;;14.50;99.90;;;;;;5053189;28;20545;-75
2023/05/09 02:12:53;;;;;;;56.70;30.15;;;14.50;99.90;;;;;;5051801;28;20370;-75
2023/05/09 02:15:19;;;;;;;59.78;30.77;;;14.50;99.90;;;;;;5045195;28;20623;-75
2023/05/09 02:17:45;;;;;;;54.58;30.23;;;14.50;99.90;;;;;;5041131;28;20266;-75
2023/05/09 02:20:12;;;;;;;51.72;29.25;;;14.40;99.90;;;;;;5044701;28;20040;-75
2023/05/09 02:22:40;;;;;;;53.60;30.35;;;14.40;99.90;;;;;;5049484;28;20040;-75
2023/05/09 02:25:07;;;;;;;53.40;30.20;;;14.40;99.90;;;;;;5046160;28;20063;-76
2023/05/09 02:27:33;;;;;;;57.60;31.13;;;14.40;99.90;;;;;;5019638;28;20317;-75
2023/05/09 02:30:03;;;;;;;59.80;32.28;;;14.40;99.90;;;;;;5050189;28;20090;-75
2023/05/09 02:32:34;;;;;;;57.65;31.50;;;14.40;99.90;;;;;;5042185;28;20502;-75
2023/05/09 02:35:01;;;;;;;51.67;28.25;;;14.40;99.90;;;;;;5061610;28;20046;-75
2023/05/09 02:37:27;;;;;;;58.50;30.80;;;14.40;99.90;;;;;;5048541;28;20033;-75
2023/05/09 02:39:54;;;;;;;64.50;32.58;;;14.40;99.90;;;;;;5047527;28;20044;-75
2023/05/09 02:42:25;;;;;;;53.88;29.40;;;14.40;99.90;;;;;;5054677;28;20076;-75
2023/05/09 02:44:51;;;;;;;49.05;29.10;;;14.40;99.90;;;;;;5052096;28;20057;-75
2023/05/09 02:47:17;;;;;;;58.25;31.33;;;14.40;99.90;;;;;;5051849;28;20063;-75
2023/05/09 02:49:43;;;;;;;51.28;30.65;;;14.50;99.90;;;;;;5050762;28;20037;-75
2023/05/09 02:52:10;;;;;;;55.50;30.58;;;14.50;99.90;;;;;;5053593;28;20123;-75
2023/05/09 02:54:36;;;;;;;53.58;30.05;;;14.50;99.90;;;;;;5054157;28;20137;-75
2023/05/09 02:57:03;;;;;;;55.55;30.73;;;14.50;99.90;;;;;;5046051;28;20506;-75
2023/05/09 02:59:28;;;;;;;55.00;31.42;;;14.50;99.90;;;;;;5050977;28;20078;-75
2023/05/09 03:01:54;;;;;;;52.78;30.75;;;14.50;99.90;;;;;;5041460;28;20048;-75
2023/05/09 03:04:20;;;;;;;50.80;30.17;;;14.50;99.90;;;;;;5057569;28;20189;-75
2023/05/09 03:06:45;;;;;;;55.70;30.85;;;14.50;99.90;;;;;;5048824;28;20047;-75
2023/05/09 03:09:11;;;;;;;51.30;29.95;;;14.60;99.90;;;;;;5049264;28;20153;-75
2023/05/09 03:11:37;;;;;;;54.60;29.85;;;14.60;99.90;;;;;;5057688;28;20067;-75
2023/05/09 03:14:03;;;;;;;59.13;31.45;;;14.60;99.90;;;;;;5051164;28;20036;-75
2023/05/09 03:16:29;;;;;;;53.45;30.45;;;14.60;99.90;;;;;;5054027;28;20043;-75
2023/05/09 03:18:55;;;;;;;52.53;30.63;;;14.60;99.90;;;;;;5055825;28;20135;-75
2023/05/09 03:21:21;;;;;;;53.45;31.25;;;14.60;99.90;;;;;;5055043;28;20143;-76
2023/05/09 03:23:47;;;;;;;51.28;29.88;;;14.60;99.90;;;;;;5049356;28;20071;-75
2023/05/09 03:26:12;;;;;;;58.88;31.70;;;14.60;99.90;;;;;;5054086;28;20043;-75
2023/05/09 03:28:38;;;;;;;53.88;30.10;;;14.60;99.90;;;;;;5044715;28;20071;-75
2023/05/09 03:31:04;;;;;;;61.53;32.78;;;14.60;99.90;;;;;;5050878;28;20131;-75
2023/05/09 03:33:30;;;;;;;53.58;30.67;;;14.60;99.90;;;;;;5053919;28;20063;-75
2023/05/09 03:35:56;;;;;;;53.45;29.92;;;14.60;99.90;;;;;;5052816;28;20048;-75
2023/05/09 03:38:23;;;;;;;51.25;30.15;;;14.70;99.90;;;;;;5052960;28;20417;-75
2023/05/09 03:40:55;;;;;;;51.40;29.83;;;14.60;99.90;;;;;;5060912;28;20067;-75
2023/05/09 03:43:20;;;;;;;50.33;30.40;;;14.60;99.90;;;;;;5052421;28;20550;-75
2023/05/09 03:45:46;;;;;;;51.00;30.42;;;14.60;99.90;;;;;;5048837;28;20060;-75
2023/05/09 03:48:12;;;;;;;52.47;30.95;;;14.60;99.90;;;;;;5045988;28;20158;-75
2023/05/09 03:50:37;;;;;;;54.40;30.83;;;14.60;99.90;;;;;;5055188;28;20033;-75
2023/05/09 03:53:03;;;;;;;49.63;29.88;;;14.60;99.90;;;;;;5059337;28;20190;-75
2023/05/09 03:55:29;;;;;;;49.08;30.45;;;14.60;99.90;;;;;;5061661;28;20040;-75
2023/05/09 03:57:55;;;;;;;47.65;30.08;;;14.70;99.90;;;;;;5054093;28;20095;-75
2023/05/09 04:00:21;;;;;;;54.75;30.30;;;14.60;99.90;;;;;;5046429;28;20043;-75
2023/05/09 04:02:50;;;;;;;51.70;30.65;;;14.70;99.90;;;;;;5047025;28;20089;-75
2023/05/09 04:05:16;;;;;;;54.20;32.50;;;14.70;99.90;;;;;;5051258;28;20032;-75
2023/05/09 04:07:42;;;;;;;52.17;31.17;;;14.60;99.90;;;;;;5049636;28;20686;-75
2023/05/09 04:10:08;;;;;;;52.70;32.53;;;14.70;99.90;;;;;;5045220;28;20029;-75
2023/05/09 04:12:34;;;;;;;47.47;28.52;;;14.70;99.90;;;;;;5054280;28;20059;-75
2023/05/09 04:15:00;;;;;;;48.90;28.30;;;14.70;99.90;;;;;;5046855;28;20525;-75
2023/05/09 04:17:25;;;;;;;42.55;28.25;;;14.70;99.90;;;;;;5050876;28;20039;-75
2023/05/09 04:19:51;;;;;;;40.90;26.15;;;14.70;99.90;;;;;;5054073;28;20066;-75
2023/05/09 04:22:17;;;;;;;37.42;24.98;;;14.70;99.90;;;;;;5047907;28;20047;-75
2023/05/09 04:24:43;;;;;;;36.65;23.02;;;14.70;99.90;;;;;;5053695;28;20047;-75
2023/05/09 04:27:09;;;;;;;29.50;21.83;;;14.70;99.90;;;;;;5053148;28;20040;-75
2023/05/09 04:29:35;;;;;;;31.50;22.08;;;14.70;99.90;;;;;;5050567;28;20532;-75
2023/05/09 04:32:01;;;;;;;27.20;19.73;;;14.70;99.90;;;;;;5044867;28;20488;-75
2023/05/09 04:34:28;;;;;;;28.00;19.52;;;14.70;99.90;;;;;;5051424;28;20040;-75
2023/05/09 04:36:54;;;;;;;27.02;19.33;;;14.70;99.90;;;;;;5059024;28;20056;-75
2023/05/09 04:39:20;;;;;;;28.23;20.58;;;14.70;99.90;;;;;;5051580;28;20059;-75
2023/05/09 04:41:46;;;;;;;28.35;20.75;;;14.70;99.90;;;;;;5048034;28;20171;-75
2023/05/09 04:44:16;;;;;;;24.98;18.83;;;14.70;99.90;;;;;;5051515;28;20498;-75
2023/05/09 04:46:42;;;;;;;25.40;18.77;;;14.70;99.90;;;;;;5039324;28;20076;-75
2023/05/09 04:49:08;;;;;;;25.23;18.23;;;14.70;99.90;;;;;;5051421;28;20044;-75
2023/05/09 04:51:34;;;;;;;25.27;18.20;;;14.70;99.90;;;;;;5050172;28;20040;-75
2023/05/09 04:53:59;;;;;;;22.80;17.77;;;14.70;99.90;;;;;;5050164;28;20028;-75
2023/05/09 04:56:25;;;;;;;23.25;17.75;;;14.70;99.90;;;;;;5035940;28;20037;-75
2023/05/09 04:58:51;;;;;;;22.67;16.38;;;14.70;99.90;;;;;;5052082;28;20040;-76
2023/05/09 05:01:17;;;;;;;22.10;16.55;;;14.70;99.90;;;;;;5046806;28;20050;-75
2023/05/09 05:03:44;;;;;;;21.67;16.23;;;14.70;99.90;;;;;;5028865;28;20055;-75
2023/05/09 05:06:10;;;;;;;23.25;17.23;;;14.80;99.90;;;;;;5057323;28;20055;-75
2023/05/09 05:08:36;;;;;;;21.25;15.43;;;14.80;99.90;;;;;;5035020;28;20036;-75
2023/05/09 05:11:01;;;;;;;23.23;16.73;;;14.70;99.90;;;;;;5054745;28;20167;-75
2023/05/09 05:13:27;;;;;;;23.05;17.20;;;14.70;99.90;;;;;;5047120;28;20274;-75
2023/05/09 05:15:53;;;;;;;23.73;16.98;;;14.80;99.90;;;;;;5056743;28;20089;-76
2023/05/09 05:18:19;;;;;;;23.67;17.67;;;14.80;99.90;;;;;;5051942;28;20043;-76
2023/05/09 05:20:44;;;;;;;26.08;18.35;;;14.80;99.90;;;;;;5060545;28;20040;-76
2023/05/09 05:23:11;;;;;;;24.15;18.00;;;14.80;99.90;;;;;;5053582;28;20036;-75
2023/05/09 05:25:37;;;;;;;25.17;18.15;;;14.80;99.90;;;;;;5040537;28;20441;-75
2023/05/09 05:28:02;;;;;;;22.48;17.10;;;14.80;99.90;;;;;;5051005;28;20044;-75
2023/05/09 05:30:28;;;;;;;25.20;18.05;;;14.80;99.90;;;;;;5058606;28;20110;-75
2023/05/09 05:32:54;;;;;;;25.52;18.23;;;14.80;99.90;;;;;;5041967;28;20032;-74
2023/05/09 05:35:22;;;;;;;24.33;17.98;;;14.90;99.90;;;;;;5024173;28;20176;-75
2023/05/09 05:37:48;;;;;;;24.00;18.13;;;14.90;99.90;;;;;;5033317;28;20520;-74
2023/05/09 05:40:13;;;;;;;23.55;18.52;;;14.90;99.90;;;;;;5068598;28;20036;-74
2023/05/09 05:42:39;;;;;;;24.63;18.17;;;14.90;99.90;;;;;;5052760;28;20047;-74
2023/05/09 05:45:06;;;;;;;26.33;18.50;;;14.90;99.90;;;;;;5061956;28;20056;-75
2023/05/09 05:47:35;;;;;;;23.63;17.67;;;14.90;99.90;;;;;;5044373;28;20063;-75
2023/05/09 05:50:05;;;;;;;22.75;16.60;;;14.80;99.90;;;;;;5066089;28;20405;-75
2023/05/09 05:52:31;;;;;;;24.88;18.15;;;14.90;99.90;;;;;;5045503;28;20424;-74
2023/05/09 05:54:57;;;;;;;22.50;17.40;;;14.80;99.90;;;;;;5061629;28;20123;-74
2023/05/09 05:57:22;;;;;;;23.85;17.30;;;14.80;99.90;;;;;;5051143;28;20119;-74
2023/05/09 05:59:50;;;;;;;24.75;19.38;;;14.80;99.90;;;;;;5067290;28;20469;-74
2023/05/09 06:02:16;;;;;;;26.45;19.38;;;14.80;99.90;;;;;;5063736;28;20401;-74
2023/05/09 06:04:42;;;;;;;25.02;18.50;;;14.80;99.90;;;;;;5061183;28;20047;-74
2023/05/09 06:07:08;;;;;;;26.70;19.58;;;14.80;99.90;;;;;;5077019;28;20033;-74
2023/05/09 06:09:34;;;;;;;24.73;18.58;;;14.80;99.90;;;;;;5067481;28;20044;-74
2023/05/09 06:12:00;;;;;;;26.48;18.85;;;14.90;99.90;;;;;;5050410;28;20059;-74
2023/05/09 06:14:26;;;;;;;23.58;18.70;;;14.80;99.90;;;;;;5037189;28;20375;-74
2023/05/09 06:16:52;;;;;;;23.70;17.98;;;14.90;99.90;;;;;;5054457;28;20725;-74
2023/05/09 06:19:18;;;;;;;24.48;18.98;;;14.90;99.90;;;;;;5043192;28;20123;-74
2023/05/09 06:21:44;;;;;;;24.55;19.02;;;14.90;99.90;;;;;;5050146;28;20139;-74
2023/05/09 06:24:09;;;;;;;24.55;19.05;;;14.90;99.90;;;;;;5043881;28;20076;-74
2023/05/09 06:26:35;;;;;;;25.73;19.00;;;15.00;99.90;;;;;;5050027;28;20082;-74
2023/05/09 06:29:02;;;;;;;25.45;19.30;;;15.00;99.90;;;;;;5045228;28;20158;-74
2023/05/09 06:31:28;;;;;;;26.63;19.50;;;15.00;99.90;;;;;;5050757;28;20091;-74
2023/05/09 06:33:54;;;;;;;27.58;20.33;;;15.10;99.90;;;;;;5052016;28;20063;-74
2023/05/09 06:36:20;;;;;;;31.30;19.73;;;15.10;99.90;;;;;;5047508;28;20104;-74
2023/05/09 06:38:45;;;;;;;26.45;19.95;;;15.10;99.90;;;;;;5064973;28;20045;-74
2023/05/09 06:41:11;;;;;;;27.30;20.85;;;15.20;99.90;;;;;;5053347;28;20087;-74
2023/05/09 06:43:37;;;;;;;27.80;21.08;;;15.30;99.90;;;;;;5057820;28;20090;-74
2023/05/09 06:46:03;;;;;;;27.38;19.75;;;15.30;99.90;;;;;;5052487;28;20120;-74
2023/05/09 06:48:29;;;;;;;27.52;20.55;;;15.40;99.90;;;;;;5062340;28;20517;-74
2023/05/09 06:50:54;;;;;;;28.40;20.35;;;15.50;99.90;;;;;;5065434;28;20063;-74
2023/05/09 06:53:20;;;;;;;31.95;21.85;;;15.50;99.90;;;;;;5044299;28;20040;-74
2023/05/09 06:55:46;;;;;;;32.97;23.48;;;15.60;99.90;;;;;;5045429;28;20032;-74
2023/05/09 06:58:12;;;;;;;31.52;22.15;;;15.70;99.90;;;;;;5043842;28;20602;-74
2023/05/09 07:00:38;;;;;;;32.15;22.20;;;15.70;99.90;;;;;;5058314;28;20181;-74
2023/05/09 07:03:06;;;;;;;33.28;22.85;;;15.70;99.90;;;;;;5069951;28;20101;-74
2023/05/09 07:05:32;;;;;;;35.28;23.63;;;15.70;99.90;;;;;;5062707;28;20161;-74
2023/05/09 07:07:58;;;;;;;33.83;23.98;;;15.70;99.90;;;;;;5068173;28;20047;-74
2023/05/09 07:10:23;;;;;;;31.95;23.42;;;15.70;99.90;;;;;;5078247;28;20028;-74
2023/05/09 07:12:52;;;;;;;32.13;23.45;;;15.70;99.90;;;;;;5053619;28;20037;-74
2023/05/09 07:15:17;;;;;;;29.50;23.15;;;15.60;99.90;;;;;;5056627;28;20055;-74
2023/05/09 07:17:43;;;;;;;31.75;23.13;;;15.60;99.90;;;;;;5063040;28;20502;-74
2023/05/09 07:20:09;;;;;;;31.23;23.73;;;15.60;99.90;;;;;;5052717;28;20054;-74
2023/05/09 07:22:35;;;;;;;33.20;25.17;;;15.60;99.90;;;;;;5051955;28;20556;-74
2023/05/09 07:25:01;;;;;;;35.00;24.67;;;15.60;99.90;;;;;;5047851;28;20048;-74
2023/05/09 07:27:26;;;;;;;33.60;24.27;;;15.60;99.90;;;;;;5067819;28;20288;-74
2023/05/09 07:29:52;;;;;;;35.67;25.88;;;15.60;99.90;;;;;;5044523;28;20044;-74
2023/05/09 07:32:20;;;;;;;35.78;25.60;;;15.60;99.90;;;;;;5048737;28;20347;-74
2023/05/09 07:34:46;;;;;;;37.05;26.73;;;15.50;99.90;;;;;;5048080;28;20032;-73
2023/05/09 07:37:12;;;;;;;36.75;26.50;;;15.60;99.90;;;;;;5064684;28;20045;-73
2023/05/09 07:39:37;;;;;;;43.45;27.42;;;15.60;99.90;;;;;;5055983;28;20048;-74
2023/05/09 07:42:04;;;;;;;45.65;28.73;;;15.50;99.90;;;;;;5056556;28;20040;-74
2023/05/09 07:44:30;;;;;;;44.72;29.25;;;15.60;99.90;;;;;;5049158;28;20063;-73
2023/05/09 07:46:58;;;;;;;46.05;29.67;;;15.60;99.90;;;;;;5036470;28;20037;-74
2023/05/09 07:49:24;;;;;;;46.03;30.33;;;15.60;99.90;;;;;;5070588;28;20494;-74
2023/05/09 07:51:50;;;;;;;46.38;29.63;;;15.60;99.90;;;;;;5042001;28;20094;-74
2023/05/09 07:54:15;;;;;;;46.50;30.48;;;15.60;99.90;;;;;;5047049;28;20362;-74
2023/05/09 07:56:41;;;;;;;43.45;29.88;;;15.60;99.90;;;;;;5087869;28;20458;-74
2023/05/09 07:59:07;;;;;;;45.47;30.42;;;15.60;99.90;;;;;;5058691;28;20536;-74
2023/05/09 08:01:33;;;;;;;48.40;31.33;;;15.70;99.90;;;;;;5081162;28;20578;-74
2023/05/09 08:03:59;;;;;;;47.83;29.90;;;15.70;99.90;;;;;;5063869;28;20040;-73
2023/05/09 08:06:25;;;;;;;51.78;30.75;;;15.70;99.90;;;;;;5059716;28;20040;-74
2023/05/09 08:08:51;;;;;;;48.72;30.45;;;15.70;99.90;;;;;;5057436;28;20102;-74
2023/05/09 08:11:17;;;;;;;46.72;29.52;;;15.70;99.90;;;;;;5027236;28;20033;-74
2023/05/09 08:13:43;;;;;;;51.78;32.83;;;15.80;99.90;;;;;;5054265;28;20032;-74
2023/05/09 08:16:08;;;;;;;49.38;32.38;;;15.80;99.90;;;;;;5044258;28;20044;-74
2023/05/09 08:18:34;;;;;;;49.50;31.80;;;15.80;99.90;;;;;;5061479;28;20041;-74
2023/05/09 08:21:00;;;;;;;48.78;31.92;;;15.80;99.90;;;;;;5057698;28;20040;-74
2023/05/09 08:23:26;;;;;;;54.00;32.38;;;15.90;99.90;;;;;;5068002;28;20347;-74
2023/05/09 08:25:53;;;;;;;50.00;31.85;;;15.90;99.90;;;;;;5055613;28;20128;-74
2023/05/09 08:28:19;;;;;;;48.60;31.27;;;16.00;99.90;;;;;;5065935;28;20160;-73
2023/05/09 08:30:45;;;;;;;49.97;30.52;;;16.00;99.90;;;;;;5054601;28;20102;-74
2023/05/09 08:33:10;;;;;;;46.63;30.08;;;16.10;99.90;;;;;;5083220;28;20592;-74
2023/05/09 08:35:36;;;;;;;49.10;32.20;;;16.20;99.90;;;;;;5051646;28;20502;-73
2023/05/09 08:38:02;;;;;;;49.38;31.13;;;16.20;99.90;;;;;;5056090;28;20474;-74
2023/05/09 08:40:28;;;;;;;48.53;30.65;;;16.40;99.90;;;;;;5046843;28;20118;-73
2023/05/09 08:42:54;;;;;;;50.97;32.13;;;16.30;99.90;;;;;;5064627;28;20529;-73
2023/05/09 08:45:26;;;;;;;47.05;31.15;;;16.40;99.90;;;;;;5054274;28;20110;-73
2023/05/09 08:47:53;;;;;;;46.03;30.02;;;16.50;99.90;;;;;;5063102;28;20051;-73
2023/05/09 08:50:19;;;;;;;46.80;30.27;;;16.50;99.90;;;;;;5046247;28;20120;-73
2023/05/09 08:52:45;;;;;;;46.72;30.27;;;16.60;99.90;;;;;;5053301;28;20127;-74
2023/05/09 08:55:11;;;;;;;45.92;30.17;;;16.80;99.90;;;;;;5062209;28;20188;-74
2023/05/09 08:57:37;;;;;;;45.47;29.42;;;16.90;99.90;;;;;;5056229;28;20566;-73
2023/05/09 09:00:10;;;;;;;45.63;29.38;;;17.00;99.90;;;;;;5048110;28;20119;-73
2023/05/09 09:02:39;;;;;;;45.80;29.60;;;17.00;99.90;;;;;;5060857;28;20048;-73
2023/05/09 09:05:06;;;;;;;47.17;29.92;;;17.10;99.90;;;;;;5056462;28;21304;-74
2023/05/09 09:07:35;;;;;;;47.03;28.38;;;17.10;99.90;;;;;;5074892;28;20044;-73
2023/05/09 09:10:02;;;;;;;45.40;29.27;;;17.20;99.90;;;;;;5060866;28;20076;-74
2023/05/09 09:12:28;;;;;;;47.50;29.95;;;18.10;99.90;;;;;;5054523;28;20055;-74
2023/05/09 09:14:58;;;;;;;48.63;30.27;;;17.50;99.90;;;;;;5051638;28;20549;-74
2023/05/09 09:17:26;;;;;;;46.05;28.77;;;17.60;99.90;;;;;;5065559;28;20529;-74
2023/05/09 09:19:55;;;;;;;44.90;30.20;;;17.70;99.90;;;;;;5070886;28;20287;-74
2023/05/09 09:22:21;;;;;;;41.80;28.20;;;17.80;99.90;;;;;;5051623;28;20037;-74
2023/05/09 09:24:47;;;;;;;43.10;28.42;;;17.90;99.90;;;;;;5036324;28;20054;-74
2023/05/09 09:27:13;;;;;;;44.38;28.73;;;18.00;99.90;;;;;;5071368;28;20043;-74
2023/05/09 09:29:39;;;;;;;42.65;27.45;;;18.00;99.90;;;;;;5054338;28;20075;-74
2023/05/09 09:32:06;;;;;;;39.65;25.98;;;18.00;99.90;;;;;;5071563;28;20032;-74
2023/05/09 09:34:31;;;;;;;40.35;26.90;;;18.00;99.90;;;;;;5061884;28;20124;-74
2023/05/09 09:36:57;;;;;;;39.05;26.00;;;17.90;99.90;;;;;;5038071;28;20264;-74
2023/05/09 09:39:23;;;;;;;38.72;25.35;;;17.90;99.90;;;;;;5070748;28;20044;-74
2023/05/09 09:41:49;;;;;;;40.95;25.77;;;17.90;99.90;;;;;;5054608;28;20051;-74
2023/05/09 09:44:19;;;;;;;41.15;25.25;;;17.90;99.90;;;;;;5050949;28;20044;-74
2023/05/09 09:46:49;;;;;;;39.10;25.52;;;17.90;99.90;;;;;;5057340;28;20052;-74
2023/05/09 09:49:16;;;;;;;41.65;25.08;;;18.00;99.90;;;;;;5070975;28;20044;-74
2023/05/09 09:51:43;;;;;;;37.03;23.65;;;18.00;99.90;;;;;;5071150;28;20047;-74
2023/05/09 09:54:10;;;;;;;35.45;23.45;;;18.00;99.90;;;;;;5054601;28;20493;-74
2023/05/09 09:56:39;;;;;;;39.65;23.35;;;18.00;99.90;;;;;;5050588;28;20123;-74
2023/05/09 09:59:13;;;;;;;37.88;22.88;;;18.00;99.90;;;;;;5069774;28;20401;-74
2023/05/09 10:01:55;;;;;;;33.50;23.13;;;18.00;99.90;;;;;;5051404;28;20083;-74
2023/05/09 10:04:21;;;;;;;34.47;22.93;;;18.00;99.90;;;;;;5046565;28;20070;-74
2023/05/09 10:06:55;;;;;;;35.47;22.92;;;18.00;99.90;;;;;;5053000;28;20040;-74
2023/05/09 10:09:22;;;;;;;36.00;23.08;;;18.00;99.90;;;;;;5070790;28;20552;-74
2023/05/09 10:11:51;;;;;;;33.47;22.38;;;18.10;99.90;;;;;;5054520;28;20032;-74
2023/05/09 10:14:24;;;;;;;32.97;22.13;;;18.10;99.90;;;;;;5070998;28;20044;-74
2023/05/09 10:16:53;;;;;;;32.95;21.35;;;18.10;99.90;;;;;;5060128;28;20048;-74
2023/05/09 10:19:21;;;;;;;33.95;21.42;;;18.00;99.90;;;;;;5068226;28;20155;-74
2023/05/09 10:21:51;;;;;;;33.65;22.50;;;17.90;99.90;;;;;;5034662;28;20048;-74
2023/05/09 10:24:48;;;;;;;31.40;21.55;;;17.90;99.90;;;;;;5051973;28;20052;-74
2023/05/09 10:27:16;;;;;;;32.97;21.35;;;17.80;99.90;;;;;;5051798;28;20063;-74
2023/05/09 10:29:53;;;;;;;32.55;22.40;;;17.70;99.90;;;;;;5064913;28;20510;-74
2023/05/09 10:32:33;;;;;;;30.27;20.65;;;17.80;99.90;;;;;;5063966;28;20071;-74
2023/05/09 10:35:05;;;;;;;31.20;21.50;;;17.90;99.90;;;;;;5070531;28;20073;-74
2023/05/09 10:37:32;;;;;;;30.38;20.00;;;18.00;99.90;;;;;;5057176;28;20562;-74
2023/05/09 10:40:01;;;;;;;30.75;21.55;;;18.20;99.90;;;;;;5051626;28;20047;-74
2023/05/09 10:42:27;;;;;;;30.42;21.10;;;18.30;99.90;;;;;;5070888;28;20044;-74
2023/05/09 10:44:54;;;;;;;30.95;20.60;;;18.40;99.90;;;;;;5053684;28;20111;-74
2023/05/09 10:47:21;;;;;;;28.73;19.48;;;18.50;99.90;;;;;;5069551;28;20474;-74
2023/05/09 10:49:48;;;;;;;28.08;20.08;;;18.60;99.90;;;;;;5052712;28;20036;-74
2023/05/09 10:52:14;;;;;;;27.80;19.60;;;18.70;99.90;;;;;;5070837;28;20094;-74
2023/05/09 10:54:39;;;;;;;29.48;20.05;;;18.70;99.90;;;;;;5053826;28;20443;-74
2023/05/09 10:57:08;;;;;;;26.80;19.58;;;18.80;99.90;;;;;;5068825;28;20418;-74
2023/05/09 10:59:44;;;;;;;28.98;20.85;;;18.90;99.90;;;;;;5070218;28;20457;-74
2023/05/09 11:02:17;;;;;;;26.92;18.92;;;19.00;99.90;;;;;;5063895;28;20116;-74
2023/05/09 11:04:44;;;;;;;28.38;18.95;;;19.10;99.90;;;;;;5073580;28;20532;-74
2023/05/09 11:07:26;;;;;;;31.13;18.55;;;19.20;99.90;;;;;;5057586;28;20089;-74
2023/05/09 11:10:06;;;;;;;25.63;17.90;;;19.20;99.90;;;;;;5068783;28;20032;-74
2023/05/09 11:12:32;;;;;;;25.75;16.70;;;19.20;99.90;;;;;;5057854;28;20266;-74
2023/05/09 11:15:06;;;;;;;25.02;17.55;;;19.10;99.90;;;;;;5040562;28;20282;-74
2023/05/09 11:17:36;;;;;;;25.77;17.23;;;19.20;99.90;;;;;;5074314;28;20123;-74
2023/05/09 11:20:04;;;;;;;26.35;17.02;;;19.20;99.90;;;;;;5066208;28;20052;-74
2023/05/09 11:22:41;;;;;;;24.38;16.77;;;19.20;99.90;;;;;;5052060;28;20040;-74
2023/05/09 11:25:12;;;;;;;23.38;16.33;;;19.30;99.90;;;;;;5053385;28;20140;-74
2023/05/09 11:27:41;;;;;;;22.33;16.20;;;19.30;99.90;;;;;;5070841;28;20266;-74
2023/05/09 11:30:08;;;;;;;24.08;16.42;;;19.30;99.90;;;;;;5059409;28;20043;-74
2023/05/09 11:32:42;;;;;;;24.08;15.65;;;19.30;99.90;;;;;;5064302;28;20040;-74
2023/05/09 11:35:12;;;;;;;25.08;16.33;;;19.20;99.90;;;;;;5073650;28;20270;-74
2023/05/09 11:37:51;;;;;;;22.85;15.10;;;19.20;99.90;;;;;;5053597;28;20060;-74
2023/05/09 11:40:18;;;;;;;21.88;15.57;;;19.20;99.90;;;;;;5048778;28;20097;-74
2023/05/09 11:42:47;;;;;;;22.38;14.70;;;19.10;99.90;;;;;;5051603;28;20051;-74
2023/05/09 11:45:13;;;;;;;23.42;15.20;;;19.10;99.90;;;;;;5051954;28;20078;-74
2023/05/09 11:47:40;;;;;;;21.17;13.93;;;19.20;99.90;;;;;;5073320;28;20044;-74
2023/05/09 11:50:10;;;;;;;28.90;18.95;;;19.20;99.90;;;;;;5070958;28;20381;-74
2023/05/09 11:52:37;;;;;;;28.17;20.75;;;19.30;99.90;;;;;;5069506;28;20071;-74
2023/05/09 11:55:09;;;;;;;29.83;20.88;;;19.30;99.90;;;;;;5063485;28;20432;-74
2023/05/09 11:57:40;;;;;;;30.50;22.43;;;19.30;99.90;;;;;;5065190;28;20149;-74
2023/05/09 12:00:08;;;;;;;37.63;23.08;;;19.30;99.90;;;;;;5067815;28;20497;-74
2023/05/09 12:02:35;;;;;;;34.83;23.48;;;19.30;99.90;;;;;;5059617;28;20051;-74
2023/05/09 12:05:12;;;;;;;35.60;22.63;;;19.30;99.90;;;;;;5050670;28;20056;-74
2023/05/09 12:07:38;;;;;;;33.25;23.90;;;19.20;99.90;;;;;;5082124;28;20048;-74
2023/05/09 12:10:09;;;;;;;35.20;24.63;;;19.20;99.90;;;;;;5072729;28;20090;-74
2023/05/09 12:12:36;;;;;;;33.97;23.42;;;19.10;99.90;;;;;;5063020;28;20028;-74
2023/05/09 12:15:07;;;;;;;34.30;23.42;;;19.10;99.90;;;;;;5069385;28;20058;-74
2023/05/09 12:17:33;;;;;;;31.88;23.27;;;19.30;99.90;;;;;;5072339;28;20040;-74
2023/05/09 12:20:00;;;;;;;32.85;22.30;;;19.30;99.90;;;;;;5052306;28;20494;-74
2023/05/09 12:22:26;;;;;;;33.58;23.52;;;19.30;99.90;;;;;;5050416;28;20116;-74
2023/05/09 12:24:53;;;;;;;32.45;22.15;;;19.30;99.90;;;;;;5052625;28;20041;-74
2023/05/09 12:27:19;;;;;;;32.33;22.45;;;19.30;99.90;;;;;;5051715;28;20045;-74
2023/05/09 12:29:47;;;;;;;33.42;22.40;;;19.40;99.90;;;;;;5063211;28;20135;-74
2023/05/09 12:32:16;;;;;;;33.85;22.40;;;19.40;99.90;;;;;;5069178;28;20101;-74
2023/05/09 12:34:44;;;;;;;32.22;22.75;;;19.40;99.90;;;;;;5068631;28;20043;-74